Franklin, Wisconsin
Current Conditions -  °F | °C
As of 5:52 PM on Saturday 25 Oct 2014 (Local Time) from KMKE Reporting Station
Clear Clear  
Wind Chill: 65°   Ceiling: Unl
Heat Index: 65°   Visibility: 10mi
Dew Point: 24°   Wind: 10mph
Humidity: 21%   Direction: 300°WNW
Pressure: 29.89"   Gusts: NA
Location:  42.9°N, 88.03°W
Report Text: KMKE 252252Z 30009KT 10SM CLR 18/M04 A2989 RMK AO2 SLP120 T01831044
Loading
Personal Weather Stations






























Interactive Weather Map
Tropical Storm Tracking
New forecast layout! Learn more

10-Day Weather Forecast

Advertisements
Track Severe Weather on mobile